sensor_id;sensor_type;location;lat;lon;timestamp;temperature;humidity
63047;DHT22;62025;39.238;9.126;2023-06-19T00:01:22;24.70;51.90
63047;DHT22;62025;39.238;9.126;2023-06-19T00:03:48;24.80;52.00
63047;DHT22;62025;39.238;9.126;2023-06-19T00:06:13;24.70;51.90
63047;DHT22;62025;39.238;9.126;2023-06-19T00:08:39;24.70;52.20
63047;DHT22;62025;39.238;9.126;2023-06-19T00:11:08;24.80;52.00
63047;DHT22;62025;39.238;9.126;2023-06-19T00:13:34;24.80;51.70
63047;DHT22;62025;39.238;9.126;2023-06-19T00:16:01;24.80;52.30
63047;DHT22;62025;39.238;9.126;2023-06-19T00:18:28;24.60;52.10
63047;DHT22;62025;39.238;9.126;2023-06-19T00:20:54;24.70;52.30
63047;DHT22;62025;39.238;9.126;2023-06-19T00:23:24;24.60;52.80
63047;DHT22;62025;39.238;9.126;2023-06-19T00:25:50;24.60;52.90
63047;DHT22;62025;39.238;9.126;2023-06-19T00:28:16;24.60;53.00
63047;DHT22;62025;39.238;9.126;2023-06-19T00:30:45;24.60;53.20
63047;DHT22;62025;39.238;9.126;2023-06-19T00:33:13;24.60;53.30
63047;DHT22;62025;39.238;9.126;2023-06-19T00:35:39;24.70;53.50
63047;DHT22;62025;39.238;9.126;2023-06-19T00:38:07;24.60;53.80
63047;DHT22;62025;39.238;9.126;2023-06-19T00:40:34;24.60;53.30
63047;DHT22;62025;39.238;9.126;2023-06-19T00:43:00;24.60;52.80
63047;DHT22;62025;39.238;9.126;2023-06-19T00:45:26;24.60;52.50
63047;DHT22;62025;39.238;9.126;2023-06-19T00:47:57;24.60;52.30
63047;DHT22;62025;39.238;9.126;2023-06-19T00:50:24;24.60;52.10
63047;DHT22;62025;39.238;9.126;2023-06-19T00:52:50;24.60;52.00
63047;DHT22;62025;39.238;9.126;2023-06-19T00:55:17;24.50;52.20
63047;DHT22;62025;39.238;9.126;2023-06-19T00:57:45;24.60;52.10
63047;DHT22;62025;39.238;9.126;2023-06-19T01:00:11;24.60;52.00
63047;DHT22;62025;39.238;9.126;2023-06-19T01:02:39;24.60;51.90
63047;DHT22;62025;39.238;9.126;2023-06-19T01:05:05;24.60;51.80
63047;DHT22;62025;39.238;9.126;2023-06-19T01:10:28;24.60;51.50
63047;DHT22;62025;39.238;9.126;2023-06-19T01:13:05;24.50;51.90
63047;DHT22;62025;39.238;9.126;2023-06-19T01:15:36;24.60;51.90
63047;DHT22;62025;39.238;9.126;2023-06-19T01:18:04;24.50;51.80
63047;DHT22;62025;39.238;9.126;2023-06-19T01:20:30;24.60;51.70
63047;DHT22;62025;39.238;9.126;2023-06-19T01:22:56;24.60;51.30
63047;DHT22;62025;39.238;9.126;2023-06-19T01:25:23;24.60;51.20
63047;DHT22;62025;39.238;9.126;2023-06-19T01:27:50;24.60;50.50
63047;DHT22;62025;39.238;9.126;2023-06-19T01:30:16;24.60;50.50
63047;DHT22;62025;39.238;9.126;2023-06-19T01:33:04;24.50;49.80
63047;DHT22;62025;39.238;9.126;2023-06-19T01:35:35;24.50;49.40
63047;DHT22;62025;39.238;9.126;2023-06-19T01:38:02;24.50;49.70
63047;DHT22;62025;39.238;9.126;2023-06-19T01:40:32;24.60;50.50
63047;DHT22;62025;39.238;9.126;2023-06-19T01:42:59;24.50;51.00
63047;DHT22;62025;39.238;9.126;2023-06-19T01:45:30;24.50;51.00
63047;DHT22;62025;39.238;9.126;2023-06-19T01:47:57;24.50;50.90
63047;DHT22;62025;39.238;9.126;2023-06-19T01:50:24;24.50;51.30
63047;DHT22;62025;39.238;9.126;2023-06-19T01:52:51;24.50;51.10
63047;DHT22;62025;39.238;9.126;2023-06-19T01:55:18;24.50;51.00
63047;DHT22;62025;39.238;9.126;2023-06-19T01:57:44;24.40;51.20
63047;DHT22;62025;39.238;9.126;2023-06-19T02:00:12;24.50;51.80
63047;DHT22;62025;39.238;9.126;2023-06-19T02:02:42;24.50;51.60
63047;DHT22;62025;39.238;9.126;2023-06-19T02:05:08;24.40;51.90
63047;DHT22;62025;39.238;9.126;2023-06-19T02:07:34;24.40;52.40
63047;DHT22;62025;39.238;9.126;2023-06-19T02:10:00;24.40;51.60
63047;DHT22;62025;39.238;9.126;2023-06-19T02:12:26;24.40;51.10
63047;DHT22;62025;39.238;9.126;2023-06-19T02:14:52;24.40;50.90
63047;DHT22;62025;39.238;9.126;2023-06-19T02:17:18;24.40;50.20
63047;DHT22;62025;39.238;9.126;2023-06-19T02:19:44;24.40;50.60
63047;DHT22;62025;39.238;9.126;2023-06-19T02:22:10;24.40;50.70
63047;DHT22;62025;39.238;9.126;2023-06-19T02:24:36;24.40;50.70
63047;DHT22;62025;39.238;9.126;2023-06-19T02:27:04;24.40;50.90
63047;DHT22;62025;39.238;9.126;2023-06-19T02:29:31;24.40;50.60
63047;DHT22;62025;39.238;9.126;2023-06-19T02:31:59;24.40;51.10
63047;DHT22;62025;39.238;9.126;2023-06-19T02:34:26;24.40;51.40
63047;DHT22;62025;39.238;9.126;2023-06-19T02:36:52;24.40;51.20
63047;DHT22;62025;39.238;9.126;2023-06-19T02:39:18;24.40;51.40
63047;DHT22;62025;39.238;9.126;2023-06-19T02:41:44;24.40;50.30
63047;DHT22;62025;39.238;9.126;2023-06-19T02:44:13;24.40;50.10
63047;DHT22;62025;39.238;9.126;2023-06-19T02:46:39;24.40;49.80
63047;DHT22;62025;39.238;9.126;2023-06-19T02:49:08;24.40;50.00
63047;DHT22;62025;39.238;9.126;2023-06-19T02:51:34;24.40;49.40
63047;DHT22;62025;39.238;9.126;2023-06-19T02:54:00;24.40;49.30
63047;DHT22;62025;39.238;9.126;2023-06-19T02:56:26;24.40;48.20
63047;DHT22;62025;39.238;9.126;2023-06-19T02:58:54;24.50;48.50
63047;DHT22;62025;39.238;9.126;2023-06-19T03:01:20;24.40;48.40
63047;DHT22;62025;39.238;9.126;2023-06-19T03:03:46;24.40;48.30
63047;DHT22;62025;39.238;9.126;2023-06-19T03:06:13;24.40;48.20
63047;DHT22;62025;39.238;9.126;2023-06-19T03:08:39;24.40;47.90
63047;DHT22;62025;39.238;9.126;2023-06-19T03:11:05;24.40;47.40
63047;DHT22;62025;39.238;9.126;2023-06-19T03:13:46;24.50;46.60
63047;DHT22;62025;39.238;9.126;2023-06-19T03:16:13;24.40;46.10
63047;DHT22;62025;39.238;9.126;2023-06-19T03:18:43;24.40;45.80
63047;DHT22;62025;39.238;9.126;2023-06-19T03:21:15;24.50;45.50
63047;DHT22;62025;39.238;9.126;2023-06-19T03:23:43;24.50;45.50
63047;DHT22;62025;39.238;9.126;2023-06-19T03:26:09;24.40;45.50
63047;DHT22;62025;39.238;9.126;2023-06-19T03:28:40;24.40;45.60
63047;DHT22;62025;39.238;9.126;2023-06-19T03:31:08;24.40;44.90
63047;DHT22;62025;39.238;9.126;2023-06-19T03:33:34;24.40;45.10
63047;DHT22;62025;39.238;9.126;2023-06-19T03:36:01;24.40;45.30
63047;DHT22;62025;39.238;9.126;2023-06-19T03:38:59;24.40;45.40
63047;DHT22;62025;39.238;9.126;2023-06-19T03:41:29;24.50;45.30
63047;DHT22;62025;39.238;9.126;2023-06-19T03:43:55;24.40;45.40
63047;DHT22;62025;39.238;9.126;2023-06-19T03:46:23;24.40;46.00
63047;DHT22;62025;39.238;9.126;2023-06-19T03:48:49;24.40;46.00
63047;DHT22;62025;39.238;9.126;2023-06-19T03:51:15;24.40;45.90
63047;DHT22;62025;39.238;9.126;2023-06-19T03:53:41;24.40;45.60
63047;DHT22;62025;39.238;9.126;2023-06-19T03:56:08;24.40;45.50
63047;DHT22;62025;39.238;9.126;2023-06-19T03:58:34;24.40;45.40
63047;DHT22;62025;39.238;9.126;2023-06-19T04:01:01;24.40;45.40
63047;DHT22;62025;39.238;9.126;2023-06-19T04:03:28;24.50;45.30
63047;DHT22;62025;39.238;9.126;2023-06-19T04:05:53;24.40;45.70
63047;DHT22;62025;39.238;9.126;2023-06-19T04:08:19;24.40;45.90
63047;DHT22;62025;39.238;9.126;2023-06-19T04:10:46;24.40;46.50
63047;DHT22;62025;39.238;9.126;2023-06-19T04:13:12;24.40;46.40
63047;DHT22;62025;39.238;9.126;2023-06-19T04:15:38;24.40;45.90
63047;DHT22;62025;39.238;9.126;2023-06-19T04:18:04;24.40;46.20
63047;DHT22;62025;39.238;9.126;2023-06-19T04:20:30;24.40;45.80
63047;DHT22;62025;39.238;9.126;2023-06-19T04:22:56;24.40;45.80
63047;DHT22;62025;39.238;9.126;2023-06-19T04:25:22;24.40;45.50
63047;DHT22;62025;39.238;9.126;2023-06-19T04:27:49;24.50;45.50
63047;DHT22;62025;39.238;9.126;2023-06-19T04:30:15;24.40;45.00
63047;DHT22;62025;39.238;9.126;2023-06-19T04:32:41;24.50;45.40
63047;DHT22;62025;39.238;9.126;2023-06-19T04:35:08;24.50;46.50
63047;DHT22;62025;39.238;9.126;2023-06-19T04:37:35;24.40;46.50
63047;DHT22;62025;39.238;9.126;2023-06-19T04:40:01;24.40;46.10
63047;DHT22;62025;39.238;9.126;2023-06-19T04:42:28;24.50;46.60
63047;DHT22;62025;39.238;9.126;2023-06-19T04:44:54;24.50;46.60
63047;DHT22;62025;39.238;9.126;2023-06-19T04:47:23;24.50;45.00
63047;DHT22;62025;39.238;9.126;2023-06-19T04:49:50;24.50;42.00
63047;DHT22;62025;39.238;9.126;2023-06-19T04:52:16;24.50;41.50
63047;DHT22;62025;39.238;9.126;2023-06-19T04:54:44;24.60;40.10
63047;DHT22;62025;39.238;9.126;2023-06-19T04:57:10;24.60;40.00
63047;DHT22;62025;39.238;9.126;2023-06-19T04:59:36;24.60;39.50
63047;DHT22;62025;39.238;9.126;2023-06-19T05:02:02;24.80;39.90
63047;DHT22;62025;39.238;9.126;2023-06-19T05:04:28;24.80;40.30
63047;DHT22;62025;39.238;9.126;2023-06-19T05:06:58;24.90;40.00
63047;DHT22;62025;39.238;9.126;2023-06-19T05:09:24;24.90;40.00
63047;DHT22;62025;39.238;9.126;2023-06-19T05:11:50;24.90;40.00
63047;DHT22;62025;39.238;9.126;2023-06-19T05:14:16;24.90;39.50
63047;DHT22;62025;39.238;9.126;2023-06-19T05:16:43;24.90;39.10
63047;DHT22;62025;39.238;9.126;2023-06-19T05:19:09;25.00;38.70
63047;DHT22;62025;39.238;9.126;2023-06-19T05:21:35;25.00;39.30
63047;DHT22;62025;39.238;9.126;2023-06-19T05:24:01;25.00;40.10
63047;DHT22;62025;39.238;9.126;2023-06-19T05:26:28;25.00;40.20
63047;DHT22;62025;39.238;9.126;2023-06-19T05:28:54;24.90;40.60
63047;DHT22;62025;39.238;9.126;2023-06-19T05:31:20;24.90;40.70
63047;DHT22;62025;39.238;9.126;2023-06-19T05:33:46;25.10;40.40
63047;DHT22;62025;39.238;9.126;2023-06-19T05:36:12;25.00;40.10
63047;DHT22;62025;39.238;9.126;2023-06-19T05:38:38;25.10;40.00
63047;DHT22;62025;39.238;9.126;2023-06-19T05:41:04;25.20;40.30
63047;DHT22;62025;39.238;9.126;2023-06-19T05:43:30;25.20;40.20
63047;DHT22;62025;39.238;9.126;2023-06-19T05:45:57;25.30;39.70
63047;DHT22;62025;39.238;9.126;2023-06-19T05:48:25;25.40;39.20
63047;DHT22;62025;39.238;9.126;2023-06-19T05:50:51;25.40;38.70
63047;DHT22;62025;39.238;9.126;2023-06-19T05:53:17;25.40;38.40
63047;DHT22;62025;39.238;9.126;2023-06-19T05:55:43;25.50;39.00
63047;DHT22;62025;39.238;9.126;2023-06-19T05:58:09;25.60;39.00
63047;DHT22;62025;39.238;9.126;2023-06-19T06:00:35;25.70;38.60
63047;DHT22;62025;39.238;9.126;2023-06-19T06:03:01;25.70;39.00
63047;DHT22;62025;39.238;9.126;2023-06-19T06:05:28;25.70;38.30
63047;DHT22;62025;39.238;9.126;2023-06-19T06:07:54;25.70;38.20
63047;DHT22;62025;39.238;9.126;2023-06-19T06:10:22;25.80;38.10
63047;DHT22;62025;39.238;9.126;2023-06-19T06:12:48;25.80;38.10
63047;DHT22;62025;39.238;9.126;2023-06-19T06:15:15;25.80;37.20
63047;DHT22;62025;39.238;9.126;2023-06-19T06:17:41;25.90;37.40
63047;DHT22;62025;39.238;9.126;2023-06-19T06:20:08;25.90;37.30
63047;DHT22;62025;39.238;9.126;2023-06-19T06:22:41;25.90;37.40
63047;DHT22;62025;39.238;9.126;2023-06-19T06:25:08;25.90;37.50
63047;DHT22;62025;39.238;9.126;2023-06-19T06:27:38;26.10;37.80
63047;DHT22;62025;39.238;9.126;2023-06-19T06:30:06;26.30;37.60
63047;DHT22;62025;39.238;9.126;2023-06-19T06:32:32;26.40;37.30
63047;DHT22;62025;39.238;9.126;2023-06-19T06:34:59;26.50;37.40
63047;DHT22;62025;39.238;9.126;2023-06-19T06:37:25;26.60;37.40
63047;DHT22;62025;39.238;9.126;2023-06-19T06:39:52;26.60;37.50
63047;DHT22;62025;39.238;9.126;2023-06-19T06:42:18;26.70;37.70
63047;DHT22;62025;39.238;9.126;2023-06-19T06:44:44;26.80;37.40
63047;DHT22;62025;39.238;9.126;2023-06-19T06:47:11;26.90;37.10
63047;DHT22;62025;39.238;9.126;2023-06-19T06:49:37;27.00;36.50
63047;DHT22;62025;39.238;9.126;2023-06-19T06:52:09;27.10;36.40
63047;DHT22;62025;39.238;9.126;2023-06-19T06:54:35;27.10;35.70
63047;DHT22;62025;39.238;9.126;2023-06-19T06:57:01;27.20;35.50
63047;DHT22;62025;39.238;9.126;2023-06-19T06:59:27;27.20;35.40
63047;DHT22;62025;39.238;9.126;2023-06-19T07:01:55;27.30;35.50
63047;DHT22;62025;39.238;9.126;2023-06-19T07:04:22;27.40;35.00
63047;DHT22;62025;39.238;9.126;2023-06-19T07:06:48;27.40;35.40
63047;DHT22;62025;39.238;9.126;2023-06-19T07:09:14;27.20;35.60
63047;DHT22;62025;39.238;9.126;2023-06-19T07:11:40;27.10;36.20
63047;DHT22;62025;39.238;9.126;2023-06-19T07:14:07;27.10;36.60
63047;DHT22;62025;39.238;9.126;2023-06-19T07:16:32;27.00;36.80
63047;DHT22;62025;39.238;9.126;2023-06-19T07:18:58;26.90;35.50
63047;DHT22;62025;39.238;9.126;2023-06-19T07:21:27;27.00;35.30
63047;DHT22;62025;39.238;9.126;2023-06-19T07:23:56;27.20;35.50
63047;DHT22;62025;39.238;9.126;2023-06-19T07:26:22;27.30;35.60
63047;DHT22;62025;39.238;9.126;2023-06-19T07:28:48;27.30;35.20
63047;DHT22;62025;39.238;9.126;2023-06-19T07:31:14;27.30;35.80
63047;DHT22;62025;39.238;9.126;2023-06-19T07:33:40;27.40;35.80
63047;DHT22;62025;39.238;9.126;2023-06-19T07:36:06;27.50;36.40
63047;DHT22;62025;39.238;9.126;2023-06-19T07:38:32;27.70;35.60
63047;DHT22;62025;39.238;9.126;2023-06-19T07:40:58;27.70;34.70
63047;DHT22;62025;39.238;9.126;2023-06-19T07:43:24;27.60;34.80
63047;DHT22;62025;39.238;9.126;2023-06-19T07:45:50;27.60;34.80
63047;DHT22;62025;39.238;9.126;2023-06-19T07:48:16;27.60;35.00
63047;DHT22;62025;39.238;9.126;2023-06-19T07:50:43;27.80;34.40
63047;DHT22;62025;39.238;9.126;2023-06-19T07:53:09;27.70;34.00
63047;DHT22;62025;39.238;9.126;2023-06-19T07:55:35;27.70;34.20
63047;DHT22;62025;39.238;9.126;2023-06-19T07:58:01;27.90;34.00
63047;DHT22;62025;39.238;9.126;2023-06-19T08:00:28;27.90;33.70
63047;DHT22;62025;39.238;9.126;2023-06-19T08:02:53;27.80;34.10
63047;DHT22;62025;39.238;9.126;2023-06-19T08:05:20;27.90;34.60
63047;DHT22;62025;39.238;9.126;2023-06-19T08:07:46;27.90;34.90
63047;DHT22;62025;39.238;9.126;2023-06-19T08:10:12;28.00;34.90
63047;DHT22;62025;39.238;9.126;2023-06-19T08:12:38;28.00;35.10
63047;DHT22;62025;39.238;9.126;2023-06-19T08:15:06;28.10;35.30
63047;DHT22;62025;39.238;9.126;2023-06-19T08:17:33;28.30;35.40
63047;DHT22;62025;39.238;9.126;2023-06-19T08:20:03;28.40;35.10
63047;DHT22;62025;39.238;9.126;2023-06-19T08:22:33;28.40;34.30
63047;DHT22;62025;39.238;9.126;2023-06-19T08:24:58;28.30;33.70
63047;DHT22;62025;39.238;9.126;2023-06-19T08:27:24;28.30;34.40
63047;DHT22;62025;39.238;9.126;2023-06-19T08:29:50;28.40;34.50
63047;DHT22;62025;39.238;9.126;2023-06-19T08:32:16;28.40;34.40
63047;DHT22;62025;39.238;9.126;2023-06-19T08:34:42;28.50;33.50
63047;DHT22;62025;39.238;9.126;2023-06-19T08:37:08;28.60;33.60
63047;DHT22;62025;39.238;9.126;2023-06-19T08:39:35;28.80;33.60
63047;DHT22;62025;39.238;9.126;2023-06-19T08:42:07;28.90;33.50
63047;DHT22;62025;39.238;9.126;2023-06-19T08:44:37;28.90;33.20
63047;DHT22;62025;39.238;9.126;2023-06-19T08:47:03;28.80;33.70
63047;DHT22;62025;39.238;9.126;2023-06-19T08:49:31;29.00;32.30
63047;DHT22;62025;39.238;9.126;2023-06-19T08:52:04;29.00;32.20
63047;DHT22;62025;39.238;9.126;2023-06-19T08:54:31;28.90;31.60
63047;DHT22;62025;39.238;9.126;2023-06-19T08:57:02;28.70;32.20
63047;DHT22;62025;39.238;9.126;2023-06-19T08:59:30;28.60;32.30
63047;DHT22;62025;39.238;9.126;2023-06-19T09:01:59;28.70;32.40
63047;DHT22;62025;39.238;9.126;2023-06-19T09:04:29;28.80;31.60
63047;DHT22;62025;39.238;9.126;2023-06-19T09:07:00;28.90;31.30
63047;DHT22;62025;39.238;9.126;2023-06-19T09:09:45;28.90;31.70
63047;DHT22;62025;39.238;9.126;2023-06-19T09:12:13;28.80;32.60
63047;DHT22;62025;39.238;9.126;2023-06-19T09:14:45;28.90;31.90
63047;DHT22;62025;39.238;9.126;2023-06-19T09:17:21;28.90;31.80
63047;DHT22;62025;39.238;9.126;2023-06-19T09:19:50;28.90;31.20
63047;DHT22;62025;39.238;9.126;2023-06-19T09:22:18;28.80;31.80
63047;DHT22;62025;39.238;9.126;2023-06-19T09:24:47;28.70;32.10
63047;DHT22;62025;39.238;9.126;2023-06-19T09:27:18;28.60;31.70
63047;DHT22;62025;39.238;9.126;2023-06-19T09:29:47;28.60;31.00
63047;DHT22;62025;39.238;9.126;2023-06-19T09:32:34;28.50;30.90
63047;DHT22;62025;39.238;9.126;2023-06-19T09:35:00;28.40;30.60
63047;DHT22;62025;39.238;9.126;2023-06-19T09:37:30;28.30;31.30
63047;DHT22;62025;39.238;9.126;2023-06-19T09:39:59;28.30;32.00
63047;DHT22;62025;39.238;9.126;2023-06-19T09:42:34;28.30;31.80
63047;DHT22;62025;39.238;9.126;2023-06-19T09:45:09;28.30;32.80
63047;DHT22;62025;39.238;9.126;2023-06-19T09:47:41;28.20;32.10
63047;DHT22;62025;39.238;9.126;2023-06-19T09:50:12;28.20;32.60
63047;DHT22;62025;39.238;9.126;2023-06-19T09:52:43;28.10;33.20
63047;DHT22;62025;39.238;9.126;2023-06-19T09:55:11;28.00;33.00
63047;DHT22;62025;39.238;9.126;2023-06-19T09:57:42;27.90;34.20
63047;DHT22;62025;39.238;9.126;2023-06-19T10:00:10;27.90;34.80
63047;DHT22;62025;39.238;9.126;2023-06-19T10:02:44;27.90;34.60
63047;DHT22;62025;39.238;9.126;2023-06-19T10:05:11;27.90;35.40
63047;DHT22;62025;39.238;9.126;2023-06-19T10:07:41;27.90;35.40
63047;DHT22;62025;39.238;9.126;2023-06-19T10:10:10;27.80;35.10
63047;DHT22;62025;39.238;9.126;2023-06-19T10:12:46;27.90;35.70
63047;DHT22;62025;39.238;9.126;2023-06-19T10:15:17;27.90;36.20
63047;DHT22;62025;39.238;9.126;2023-06-19T10:17:50;27.90;37.40
63047;DHT22;62025;39.238;9.126;2023-06-19T10:20:34;27.90;37.40
63047;DHT22;62025;39.238;9.126;2023-06-19T10:25:45;27.80;38.00
63047;DHT22;62025;39.238;9.126;2023-06-19T10:31:03;27.80;37.90
63047;DHT22;62025;39.238;9.126;2023-06-19T10:33:32;27.70;38.50
63047;DHT22;62025;39.238;9.126;2023-06-19T10:36:00;27.80;38.80
63047;DHT22;62025;39.238;9.126;2023-06-19T10:38:30;27.90;38.40
63047;DHT22;62025;39.238;9.126;2023-06-19T10:40:56;27.90;38.40
63047;DHT22;62025;39.238;9.126;2023-06-19T10:43:23;28.00;38.30
63047;DHT22;62025;39.238;9.126;2023-06-19T10:45:54;28.10;38.40
63047;DHT22;62025;39.238;9.126;2023-06-19T10:48:22;28.20;38.80
63047;DHT22;62025;39.238;9.126;2023-06-19T10:50:49;28.20;38.30
63047;DHT22;62025;39.238;9.126;2023-06-19T10:53:31;28.20;38.40
63047;DHT22;62025;39.238;9.126;2023-06-19T10:56:01;28.20;37.70
63047;DHT22;62025;39.238;9.126;2023-06-19T10:58:28;28.00;37.50
63047;DHT22;62025;39.238;9.126;2023-06-19T11:00:55;28.10;37.40
63047;DHT22;62025;39.238;9.126;2023-06-19T11:03:22;28.10;37.00
63047;DHT22;62025;39.238;9.126;2023-06-19T11:05:50;28.10;38.10
63047;DHT22;62025;39.238;9.126;2023-06-19T11:08:23;28.10;38.30
63047;DHT22;62025;39.238;9.126;2023-06-19T11:10:50;28.20;38.20
63047;DHT22;62025;39.238;9.126;2023-06-19T11:13:17;28.10;38.40
63047;DHT22;62025;39.238;9.126;2023-06-19T11:15:44;28.20;38.90
63047;DHT22;62025;39.238;9.126;2023-06-19T11:18:10;28.20;40.10
63047;DHT22;62025;39.238;9.126;2023-06-19T11:20:51;28.10;38.90
63047;DHT22;62025;39.238;9.126;2023-06-19T11:23:29;28.00;39.20
63047;DHT22;62025;39.238;9.126;2023-06-19T11:26:03;28.00;38.80
63047;DHT22;62025;39.238;9.126;2023-06-19T11:28:30;27.90;38.50
63047;DHT22;62025;39.238;9.126;2023-06-19T11:31:01;27.90;39.00
63047;DHT22;62025;39.238;9.126;2023-06-19T11:33:28;27.70;38.90
63047;DHT22;62025;39.238;9.126;2023-06-19T11:36:00;27.80;38.50
63047;DHT22;62025;39.238;9.126;2023-06-19T11:38:27;27.80;38.80
63047;DHT22;62025;39.238;9.126;2023-06-19T11:40:55;27.90;37.90
63047;DHT22;62025;39.238;9.126;2023-06-19T11:43:29;27.90;37.60
63047;DHT22;62025;39.238;9.126;2023-06-19T11:46:07;27.90;37.70
63047;DHT22;62025;39.238;9.126;2023-06-19T11:48:36;28.00;37.10
63047;DHT22;62025;39.238;9.126;2023-06-19T11:51:03;27.90;37.50
63047;DHT22;62025;39.238;9.126;2023-06-19T11:53:29;27.90;37.40
63047;DHT22;62025;39.238;9.126;2023-06-19T11:55:55;27.80;37.80
63047;DHT22;62025;39.238;9.126;2023-06-19T11:58:22;27.80;38.40
63047;DHT22;62025;39.238;9.126;2023-06-19T12:00:48;27.80;38.40
63047;DHT22;62025;39.238;9.126;2023-06-19T12:03:15;27.80;38.80
63047;DHT22;62025;39.238;9.126;2023-06-19T12:05:41;27.70;39.00
63047;DHT22;62025;39.238;9.126;2023-06-19T12:08:07;27.60;39.00
63047;DHT22;62025;39.238;9.126;2023-06-19T12:10:34;27.50;39.20
63047;DHT22;62025;39.238;9.126;2023-06-19T12:13:00;27.50;39.00
63047;DHT22;62025;39.238;9.126;2023-06-19T12:15:26;27.50;40.00
63047;DHT22;62025;39.238;9.126;2023-06-19T12:17:52;27.30;41.50
63047;DHT22;62025;39.238;9.126;2023-06-19T12:20:18;27.20;41.80
63047;DHT22;62025;39.238;9.126;2023-06-19T12:22:45;27.30;41.40
63047;DHT22;62025;39.238;9.126;2023-06-19T12:25:11;27.20;42.20
63047;DHT22;62025;39.238;9.126;2023-06-19T12:27:38;27.10;43.00
63047;DHT22;62025;39.238;9.126;2023-06-19T12:30:05;27.10;43.20
63047;DHT22;62025;39.238;9.126;2023-06-19T12:32:31;27.10;43.00
63047;DHT22;62025;39.238;9.126;2023-06-19T12:34:59;27.20;42.60
63047;DHT22;62025;39.238;9.126;2023-06-19T12:37:25;27.10;41.30
63047;DHT22;62025;39.238;9.126;2023-06-19T12:39:52;27.10;41.40
63047;DHT22;62025;39.238;9.126;2023-06-19T12:42:18;27.30;40.10
63047;DHT22;62025;39.238;9.126;2023-06-19T12:44:44;27.30;38.30
63047;DHT22;62025;39.238;9.126;2023-06-19T12:47:10;27.30;36.60
63047;DHT22;62025;39.238;9.126;2023-06-19T12:49:36;27.40;35.50
63047;DHT22;62025;39.238;9.126;2023-06-19T12:52:03;27.40;36.20
63047;DHT22;62025;39.238;9.126;2023-06-19T12:54:29;27.40;36.40
63047;DHT22;62025;39.238;9.126;2023-06-19T12:56:55;27.40;36.20
63047;DHT22;62025;39.238;9.126;2023-06-19T12:59:21;27.40;36.20
63047;DHT22;62025;39.238;9.126;2023-06-19T13:01:47;27.40;35.90
63047;DHT22;62025;39.238;9.126;2023-06-19T13:04:13;27.30;36.10
63047;DHT22;62025;39.238;9.126;2023-06-19T13:06:40;27.40;36.20
63047;DHT22;62025;39.238;9.126;2023-06-19T13:09:06;27.30;37.00
63047;DHT22;62025;39.238;9.126;2023-06-19T13:11:33;27.10;37.80
63047;DHT22;62025;39.238;9.126;2023-06-19T13:14:00;27.00;38.30
63047;DHT22;62025;39.238;9.126;2023-06-19T13:16:26;27.10;38.60
63047;DHT22;62025;39.238;9.126;2023-06-19T13:18:52;27.00;38.30
63047;DHT22;62025;39.238;9.126;2023-06-19T13:21:18;27.00;38.90
63047;DHT22;62025;39.238;9.126;2023-06-19T13:23:44;26.90;39.70
63047;DHT22;62025;39.238;9.126;2023-06-19T13:26:11;26.90;40.20
63047;DHT22;62025;39.238;9.126;2023-06-19T13:28:37;26.80;41.30
63047;DHT22;62025;39.238;9.126;2023-06-19T13:31:03;26.80;42.20
63047;DHT22;62025;39.238;9.126;2023-06-19T13:33:29;26.70;43.30
63047;DHT22;62025;39.238;9.126;2023-06-19T13:35:55;26.60;43.80
63047;DHT22;62025;39.238;9.126;2023-06-19T13:38:21;26.50;43.30
63047;DHT22;62025;39.238;9.126;2023-06-19T13:40:48;26.40;43.10
63047;DHT22;62025;39.238;9.126;2023-06-19T13:43:14;26.50;43.30
63047;DHT22;62025;39.238;9.126;2023-06-19T13:45:40;26.60;43.30
63047;DHT22;62025;39.238;9.126;2023-06-19T13:48:07;26.60;43.00
63047;DHT22;62025;39.238;9.126;2023-06-19T13:50:33;26.70;42.60
63047;DHT22;62025;39.238;9.126;2023-06-19T13:53:00;26.80;42.20
63047;DHT22;62025;39.238;9.126;2023-06-19T13:55:27;26.80;42.70
63047;DHT22;62025;39.238;9.126;2023-06-19T13:57:53;26.80;42.70
63047;DHT22;62025;39.238;9.126;2023-06-19T14:00:19;26.80;42.40
63047;DHT22;62025;39.238;9.126;2023-06-19T14:02:45;26.80;42.80
63047;DHT22;62025;39.238;9.126;2023-06-19T14:05:12;26.80;42.90
63047;DHT22;62025;39.238;9.126;2023-06-19T14:07:41;26.60;43.20
63047;DHT22;62025;39.238;9.126;2023-06-19T14:10:08;26.70;44.10
63047;DHT22;62025;39.238;9.126;2023-06-19T14:12:34;26.70;44.80
63047;DHT22;62025;39.238;9.126;2023-06-19T14:15:00;26.60;44.80
63047;DHT22;62025;39.238;9.126;2023-06-19T14:17:26;26.60;45.10
63047;DHT22;62025;39.238;9.126;2023-06-19T14:19:53;26.60;46.30
63047;DHT22;62025;39.238;9.126;2023-06-19T14:22:20;26.40;46.20
63047;DHT22;62025;39.238;9.126;2023-06-19T14:24:47;26.40;46.30
63047;DHT22;62025;39.238;9.126;2023-06-19T14:27:13;26.40;46.70
63047;DHT22;62025;39.238;9.126;2023-06-19T14:29:39;26.40;46.30
63047;DHT22;62025;39.238;9.126;2023-06-19T14:32:05;26.30;46.30
63047;DHT22;62025;39.238;9.126;2023-06-19T14:34:31;26.40;45.90
63047;DHT22;62025;39.238;9.126;2023-06-19T14:36:57;26.40;46.50
63047;DHT22;62025;39.238;9.126;2023-06-19T14:39:23;26.30;46.40
63047;DHT22;62025;39.238;9.126;2023-06-19T14:41:49;26.30;46.30
63047;DHT22;62025;39.238;9.126;2023-06-19T14:44:15;26.20;46.60
63047;DHT22;62025;39.238;9.126;2023-06-19T14:46:41;26.30;46.70
63047;DHT22;62025;39.238;9.126;2023-06-19T14:49:07;26.30;45.90
63047;DHT22;62025;39.238;9.126;2023-06-19T14:51:35;26.30;44.30
63047;DHT22;62025;39.238;9.126;2023-06-19T14:54:02;26.40;43.90
63047;DHT22;62025;39.238;9.126;2023-06-19T14:56:28;26.40;44.10
63047;DHT22;62025;39.238;9.126;2023-06-19T14:58:54;26.40;44.60
63047;DHT22;62025;39.238;9.126;2023-06-19T15:01:20;26.40;44.30
63047;DHT22;62025;39.238;9.126;2023-06-19T15:03:46;26.40;44.70
63047;DHT22;62025;39.238;9.126;2023-06-19T15:06:12;26.40;44.40
63047;DHT22;62025;39.238;9.126;2023-06-19T15:08:38;26.40;44.30
63047;DHT22;62025;39.238;9.126;2023-06-19T15:11:05;26.40;43.80
63047;DHT22;62025;39.238;9.126;2023-06-19T15:13:31;26.50;43.50
63047;DHT22;62025;39.238;9.126;2023-06-19T15:15:58;26.60;43.50
63047;DHT22;62025;39.238;9.126;2023-06-19T15:18:25;26.70;43.40
63047;DHT22;62025;39.238;9.126;2023-06-19T15:20:52;26.70;43.30
63047;DHT22;62025;39.238;9.126;2023-06-19T15:23:18;26.70;43.80
63047;DHT22;62025;39.238;9.126;2023-06-19T15:25:44;26.70;44.00
63047;DHT22;62025;39.238;9.126;2023-06-19T15:28:10;26.80;44.20
63047;DHT22;62025;39.238;9.126;2023-06-19T15:30:36;26.70;44.20
63047;DHT22;62025;39.238;9.126;2023-06-19T15:33:02;26.60;43.80
63047;DHT22;62025;39.238;9.126;2023-06-19T15:35:28;26.50;43.50
63047;DHT22;62025;39.238;9.126;2023-06-19T15:37:54;26.60;43.40
63047;DHT22;62025;39.238;9.126;2023-06-19T15:40:27;26.60;43.20